sensor_id;sensor_type;location;lat;lon;timestamp;pressure;altitude;pressure_sealevel;temperature;humidity
22550;BME280;11441;57.164;-2.120;2022-12-18T00:01:46;101079.69;;;-0.28;100.00
22550;BME280;11441;57.164;-2.120;2022-12-18T00:04:24;101064.81;;;-0.21;100.00
22550;BME280;11441;57.164;-2.120;2022-12-18T00:06:51;101066.66;;;-0.16;100.00
22550;BME280;11441;57.164;-2.120;2022-12-18T00:09:19;101075.06;;;-0.17;100.00
22550;BME280;11441;57.164;-2.120;2022-12-18T00:11:50;101072.94;;;-0.26;100.00
22550;BME280;11441;57.164;-2.120;2022-12-18T00:14:17;101088.06;;;-0.09;100.00
22550;BME280;11441;57.164;-2.120;2022-12-18T00:16:45;101091.88;;;-0.10;100.00
22550;BME280;11441;57.164;-2.120;2022-12-18T00:19:13;101095.38;;;-0.20;100.00
22550;BME280;11441;57.164;-2.120;2022-12-18T00:21:41;101091.88;;;-0.15;100.00
22550;BME280;11441;57.164;-2.120;2022-12-18T00:24:10;101094.31;;;-0.24;100.00
22550;BME280;11441;57.164;-2.120;2022-12-18T00:26:38;101097.31;;;-0.51;100.00
22550;BME280;11441;57.164;-2.120;2022-12-18T00:29:12;101104.34;;;-0.45;100.00
22550;BME280;11441;57.164;-2.120;2022-12-18T00:32:01;101104.63;;;-0.52;100.00
22550;BME280;11441;57.164;-2.120;2022-12-18T00:34:28;101101.63;;;-0.55;100.00
22550;BME280;11441;57.164;-2.120;2022-12-18T00:36:55;101107.31;;;-0.47;100.00
22550;BME280;11441;57.164;-2.120;2022-12-18T00:39:22;101094.59;;;-0.36;100.00
22550;BME280;11441;57.164;-2.120;2022-12-18T00:41:49;101097.84;;;-0.39;100.00
22550;BME280;11441;57.164;-2.120;2022-12-18T00:44:34;101102.97;;;-0.32;100.00
22550;BME280;11441;57.164;-2.120;2022-12-18T00:47:01;101109.19;;;-0.22;100.00
22550;BME280;11441;57.164;-2.120;2022-12-18T00:49:28;101103.50;;;-0.10;100.00
22550;BME280;11441;57.164;-2.120;2022-12-18T00:51:54;101101.84;;;-0.06;100.00
22550;BME280;11441;57.164;-2.120;2022-12-18T00:54:21;101102.69;;;0.00;100.00
22550;BME280;11441;57.164;-2.120;2022-12-18T00:56:49;101089.72;;;-0.24;100.00
22550;BME280;11441;57.164;-2.120;2022-12-18T00:59:17;101110.28;;;-0.28;100.00
22550;BME280;11441;57.164;-2.120;2022-12-18T01:01:44;101092.69;;;-0.25;100.00
22550;BME280;11441;57.164;-2.120;2022-12-18T01:04:12;101102.19;;;-0.28;100.00
22550;BME280;11441;57.164;-2.120;2022-12-18T01:06:39;101102.72;;;-0.26;100.00
22550;BME280;11441;57.164;-2.120;2022-12-18T01:09:06;101109.19;;;-0.32;100.00
22550;BME280;11441;57.164;-2.120;2022-12-18T01:11:35;101100.28;;;-0.32;100.00
22550;BME280;11441;57.164;-2.120;2022-12-18T01:14:03;101110.03;;;-0.36;100.00
22550;BME280;11441;57.164;-2.120;2022-12-18T01:16:30;101104.31;;;-0.30;100.00
22550;BME280;11441;57.164;-2.120;2022-12-18T01:18:57;101101.34;;;-0.28;100.00
22550;BME280;11441;57.164;-2.120;2022-12-18T01:21:26;101095.41;;;-0.41;100.00
22550;BME280;11441;57.164;-2.120;2022-12-18T01:23:55;101107.84;;;-0.50;100.00
22550;BME280;11441;57.164;-2.120;2022-12-18T01:26:24;101116.78;;;-0.54;100.00
22550;BME280;11441;57.164;-2.120;2022-12-18T01:28:51;101113.81;;;-0.53;100.00
22550;BME280;11441;57.164;-2.120;2022-12-18T01:31:24;101118.94;;;-0.67;100.00
22550;BME280;11441;57.164;-2.120;2022-12-18T01:33:52;101115.44;;;-0.57;100.00
22550;BME280;11441;57.164;-2.120;2022-12-18T01:36:31;101111.38;;;-0.54;100.00
22550;BME280;11441;57.164;-2.120;2022-12-18T01:39:05;101102.97;;;-0.43;100.00
22550;BME280;11441;57.164;-2.120;2022-12-18T01:41:33;101097.84;;;-0.44;100.00
22550;BME280;11441;57.164;-2.120;2022-12-18T01:50:09;101106.75;;;-0.44;100.00
22550;BME280;11441;57.164;-2.120;2022-12-18T01:52:37;101115.44;;;-0.57;100.00
22550;BME280;11441;57.164;-2.120;2022-12-18T01:55:05;101114.06;;;-0.65;100.00
22550;BME280;11441;57.164;-2.120;2022-12-18T01:57:33;101111.91;;;-0.68;100.00
22550;BME280;11441;57.164;-2.120;2022-12-18T02:00:06;101101.09;;;-0.78;100.00
22550;BME280;11441;57.164;-2.120;2022-12-18T02:02:41;101101.59;;;-0.97;100.00
22550;BME280;11441;57.164;-2.120;2022-12-18T02:05:09;101101.84;;;-1.03;100.00
22550;BME280;11441;57.164;-2.120;2022-12-18T02:07:51;101109.72;;;-0.91;100.00
22550;BME280;11441;57.164;-2.120;2022-12-18T02:10:30;101102.38;;;-1.11;100.00
22550;BME280;11441;57.164;-2.120;2022-12-18T02:18:35;101118.84;;;-1.18;100.00
22550;BME280;11441;57.164;-2.120;2022-12-18T02:21:40;101123.47;;;-1.03;100.00
22550;BME280;11441;57.164;-2.120;2022-12-18T02:24:24;101124.00;;;-1.11;100.00
22550;BME280;11441;57.164;-2.120;2022-12-18T02:27:07;101128.59;;;-1.07;100.00
22550;BME280;11441;57.164;-2.120;2022-12-18T02:29:39;101131.34;;;-0.97;100.00
22550;BME280;11441;57.164;-2.120;2022-12-18T02:32:10;101114.53;;;-1.09;100.00
22550;BME280;11441;57.164;-2.120;2022-12-18T02:34:41;101118.88;;;-0.98;100.00
22550;BME280;11441;57.164;-2.120;2022-12-18T02:37:16;101111.06;;;-0.94;100.00
22550;BME280;11441;57.164;-2.120;2022-12-18T02:39:49;101122.44;;;-0.82;100.00
22550;BME280;11441;57.164;-2.120;2022-12-18T02:42:17;101112.16;;;-0.85;100.00
22550;BME280;11441;57.164;-2.120;2022-12-18T02:45:06;101107.81;;;-0.81;100.00
22550;BME280;11441;57.164;-2.120;2022-12-18T02:47:38;101122.69;;;-0.99;100.00
22550;BME280;11441;57.164;-2.120;2022-12-18T02:50:37;101118.06;;;-0.98;100.00
22550;BME280;11441;57.164;-2.120;2022-12-18T02:53:16;101120.25;;;-0.95;100.00
22550;BME280;11441;57.164;-2.120;2022-12-18T02:56:09;101131.06;;;-1.00;100.00
22550;BME280;11441;57.164;-2.120;2022-12-18T03:04:06;101130.47;;;-1.18;100.00
22550;BME280;11441;57.164;-2.120;2022-12-18T03:06:46;101112.34;;;-1.17;100.00
22550;BME280;11441;57.164;-2.120;2022-12-18T03:09:38;101121.78;;;-1.25;100.00
22550;BME280;11441;57.164;-2.120;2022-12-18T03:12:21;101120.69;;;-1.24;100.00
22550;BME280;11441;57.164;-2.120;2022-12-18T03:15:14;101120.69;;;-1.29;100.00
22550;BME280;11441;57.164;-2.120;2022-12-18T03:18:13;101121.28;;;-1.22;100.00
22550;BME280;11441;57.164;-2.120;2022-12-18T03:20:44;101122.28;;;-1.33;100.00
22550;BME280;11441;57.164;-2.120;2022-12-18T03:23:21;101123.91;;;-1.42;100.00
22550;BME280;11441;57.164;-2.120;2022-12-18T03:25:55;101126.38;;;-1.30;100.00
22550;BME280;11441;57.164;-2.120;2022-12-18T03:28:28;101129.38;;;-1.22;100.00
22550;BME280;11441;57.164;-2.120;2022-12-18T03:31:01;101121.81;;;-1.20;100.00
22550;BME280;11441;57.164;-2.120;2022-12-18T03:33:41;101121.28;;;-1.17;100.00
22550;BME280;11441;57.164;-2.120;2022-12-18T03:36:10;101119.63;;;-1.28;100.00
22550;BME280;11441;57.164;-2.120;2022-12-18T03:38:38;101118.56;;;-1.22;100.00
22550;BME280;11441;57.164;-2.120;2022-12-18T03:50:22;101129.28;;;-1.47;100.00
22550;BME280;11441;57.164;-2.120;2022-12-18T03:55:35;101122.34;;;-1.86;100.00
22550;BME280;11441;57.164;-2.120;2022-12-18T03:58:06;101129.06;;;-1.88;100.00
22550;BME280;11441;57.164;-2.120;2022-12-18T04:00:47;101127.44;;;-1.90;100.00
22550;BME280;11441;57.164;-2.120;2022-12-18T04:03:16;101121.84;;;-1.73;100.00
22550;BME280;11441;57.164;-2.120;2022-12-18T04:06:07;101125.44;;;-1.62;100.00
22550;BME280;11441;57.164;-2.120;2022-12-18T04:08:34;101130.03;;;-1.57;100.00
22550;BME280;11441;57.164;-2.120;2022-12-18T04:11:05;101132.47;;;-1.56;100.00
22550;BME280;11441;57.164;-2.120;2022-12-18T04:13:35;101136.34;;;-1.89;100.00
22550;BME280;11441;57.164;-2.120;2022-12-18T04:16:07;101150.28;;;-2.02;100.00
22550;BME280;11441;57.164;-2.120;2022-12-18T04:18:39;101158.38;;;-2.02;100.00
22550;BME280;11441;57.164;-2.120;2022-12-18T04:21:07;101143.25;;;-2.09;100.00
22550;BME280;11441;57.164;-2.120;2022-12-18T04:23:34;101160.56;;;-1.99;100.00
22550;BME280;11441;57.164;-2.120;2022-12-18T04:26:19;101164.75;;;-2.19;100.00
22550;BME280;11441;57.164;-2.120;2022-12-18T04:29:07;101159.91;;;-2.17;100.00
22550;BME280;11441;57.164;-2.120;2022-12-18T04:31:33;101161.47;;;-2.26;100.00
22550;BME280;11441;57.164;-2.120;2022-12-18T04:34:01;101162.22;;;-2.31;100.00
22550;BME280;11441;57.164;-2.120;2022-12-18T04:36:32;101161.56;;;-2.16;100.00
22550;BME280;11441;57.164;-2.120;2022-12-18T04:38:59;101150.47;;;-2.19;100.00
22550;BME280;11441;57.164;-2.120;2022-12-18T04:41:26;101146.28;;;-2.32;100.00
22550;BME280;11441;57.164;-2.120;2022-12-18T04:43:53;101151.81;;;-2.17;100.00
22550;BME280;11441;57.164;-2.120;2022-12-18T04:46:20;101153.97;;;-2.19;100.00
22550;BME280;11441;57.164;-2.120;2022-12-18T04:48:47;101148.09;;;-2.11;100.00
22550;BME280;11441;57.164;-2.120;2022-12-18T04:51:14;101144.75;;;-2.23;100.00
22550;BME280;11441;57.164;-2.120;2022-12-18T04:53:41;101151.69;;;-2.32;100.00
22550;BME280;11441;57.164;-2.120;2022-12-18T04:56:09;101156.31;;;-2.28;100.00
22550;BME280;11441;57.164;-2.120;2022-12-18T04:58:37;101148.00;;;-2.21;100.00
22550;BME280;11441;57.164;-2.120;2022-12-18T05:01:05;101125.28;;;-1.87;100.00
22550;BME280;11441;57.164;-2.120;2022-12-18T05:03:35;101126.75;;;-1.64;100.00
22550;BME280;11441;57.164;-2.120;2022-12-18T05:06:03;101131.97;;;-1.47;100.00
22550;BME280;11441;57.164;-2.120;2022-12-18T05:08:31;101129.03;;;-1.41;100.00
22550;BME280;11441;57.164;-2.120;2022-12-18T05:11:05;101128.50;;;-1.33;100.00
22550;BME280;11441;57.164;-2.120;2022-12-18T05:13:33;101119.63;;;-1.28;100.00
22550;BME280;11441;57.164;-2.120;2022-12-18T05:16:02;101092.66;;;-1.07;100.00
22550;BME280;11441;57.164;-2.120;2022-12-18T05:18:29;101096.19;;;-0.91;100.00
22550;BME280;11441;57.164;-2.120;2022-12-18T05:20:56;101092.69;;;-0.82;100.00
22550;BME280;11441;57.164;-2.120;2022-12-18T05:23:42;101088.38;;;-0.72;100.00
22550;BME280;11441;57.164;-2.120;2022-12-18T05:26:15;101078.63;;;-0.58;100.00
22550;BME280;11441;57.164;-2.120;2022-12-18T05:29:00;101076.72;;;-0.58;100.00
22550;BME280;11441;57.164;-2.120;2022-12-18T05:31:27;101079.72;;;-0.54;100.00
22550;BME280;11441;57.164;-2.120;2022-12-18T05:33:54;101075.66;;;-0.57;100.00
22550;BME280;11441;57.164;-2.120;2022-12-18T05:36:21;101068.06;;;-0.54;100.00
22550;BME280;11441;57.164;-2.120;2022-12-18T05:38:47;101060.75;;;-0.49;100.00
22550;BME280;11441;57.164;-2.120;2022-12-18T05:41:14;101069.69;;;-0.33;100.00
22550;BME280;11441;57.164;-2.120;2022-12-18T05:43:41;101062.13;;;-0.36;100.00
22550;BME280;11441;57.164;-2.120;2022-12-18T05:46:12;101070.75;;;-0.29;100.00
22550;BME280;11441;57.164;-2.120;2022-12-18T05:48:40;101063.16;;;-0.22;100.00
22550;BME280;11441;57.164;-2.120;2022-12-18T05:51:15;101069.09;;;-0.14;100.00
22550;BME280;11441;57.164;-2.120;2022-12-18T05:53:43;101071.53;;;-0.13;100.00
22550;BME280;11441;57.164;-2.120;2022-12-18T05:56:19;101072.59;;;-0.09;100.00
22550;BME280;11441;57.164;-2.120;2022-12-18T05:58:46;101069.91;;;-0.09;100.00
22550;BME280;11441;57.164;-2.120;2022-12-18T06:01:17;101072.34;;;-0.17;100.00
22550;BME280;11441;57.164;-2.120;2022-12-18T06:03:44;101075.09;;;-0.23;100.00
22550;BME280;11441;57.164;-2.120;2022-12-18T06:06:23;101065.59;;;-0.15;100.00
22550;BME280;11441;57.164;-2.120;2022-12-18T06:08:52;101059.38;;;-0.21;100.00
22550;BME280;11441;57.164;-2.120;2022-12-18T06:11:21;101058.56;;;-0.21;100.00
22550;BME280;11441;57.164;-2.120;2022-12-18T06:13:51;101057.75;;;-0.16;100.00
22550;BME280;11441;57.164;-2.120;2022-12-18T06:16:24;101060.44;;;-0.11;100.00
22550;BME280;11441;57.164;-2.120;2022-12-18T06:18:51;101063.69;;;-0.09;100.00
22550;BME280;11441;57.164;-2.120;2022-12-18T06:21:17;101064.22;;;-0.12;100.00
22550;BME280;11441;57.164;-2.120;2022-12-18T06:23:44;101062.59;;;-0.08;100.00
22550;BME280;11441;57.164;-2.120;2022-12-18T06:26:12;101062.06;;;0.00;100.00
22550;BME280;11441;57.164;-2.120;2022-12-18T06:28:40;101070.44;;;0.09;100.00
22550;BME280;11441;57.164;-2.120;2022-12-18T06:31:08;101065.78;;;0.14;100.00
22550;BME280;11441;57.164;-2.120;2022-12-18T06:33:35;101059.84;;;0.17;100.00
22550;BME280;11441;57.164;-2.120;2022-12-18T06:36:04;101046.81;;;0.25;100.00
22550;BME280;11441;57.164;-2.120;2022-12-18T06:38:35;101057.66;;;0.20;100.00
22550;BME280;11441;57.164;-2.120;2022-12-18T06:41:10;101060.38;;;0.20;100.00
22550;BME280;11441;57.164;-2.120;2022-12-18T06:43:38;101066.31;;;0.22;100.00
22550;BME280;11441;57.164;-2.120;2022-12-18T06:46:05;101063.34;;;0.18;100.00
22550;BME280;11441;57.164;-2.120;2022-12-18T06:48:32;101070.13;;;0.05;100.00
22550;BME280;11441;57.164;-2.120;2022-12-18T06:50:59;101061.22;;;-0.06;100.00
22550;BME280;11441;57.164;-2.120;2022-12-18T06:53:27;101062.34;;;-0.17;100.00
22550;BME280;11441;57.164;-2.120;2022-12-18T06:56:13;101061.25;;;-0.21;100.00
22550;BME280;11441;57.164;-2.120;2022-12-18T06:58:40;101064.03;;;-0.36;100.00
22550;BME280;11441;57.164;-2.120;2022-12-18T07:01:09;101048.31;;;-0.29;100.00
22550;BME280;11441;57.164;-2.120;2022-12-18T07:03:37;101058.84;;;-0.23;100.00
22550;BME280;11441;57.164;-2.120;2022-12-18T07:06:05;101056.97;;;-0.27;100.00
22550;BME280;11441;57.164;-2.120;2022-12-18T07:08:33;101055.84;;;-0.26;100.00
22550;BME280;11441;57.164;-2.120;2022-12-18T07:11:03;101061.25;;;-0.21;100.00
22550;BME280;11441;57.164;-2.120;2022-12-18T07:13:30;101062.91;;;-0.20;100.00
22550;BME280;11441;57.164;-2.120;2022-12-18T07:16:16;101065.63;;;-0.46;100.00
22550;BME280;11441;57.164;-2.120;2022-12-18T07:18:51;101065.63;;;-0.46;100.00
22550;BME280;11441;57.164;-2.120;2022-12-18T07:21:19;101056.44;;;-0.45;100.00
22550;BME280;11441;57.164;-2.120;2022-12-18T07:23:46;101038.88;;;-0.63;100.00
22550;BME280;11441;57.164;-2.120;2022-12-18T07:26:33;101064.81;;;-0.36;100.00
22550;BME280;11441;57.164;-2.120;2022-12-18T07:29:00;101061.84;;;-0.45;100.00
22550;BME280;11441;57.164;-2.120;2022-12-18T07:31:27;101061.56;;;-0.38;100.00
22550;BME280;11441;57.164;-2.120;2022-12-18T07:33:54;101064.56;;;-0.34;100.00
22550;BME280;11441;57.164;-2.120;2022-12-18T07:36:20;101074.53;;;-0.25;100.00
22550;BME280;11441;57.164;-2.120;2022-12-18T07:38:51;101052.09;;;-0.30;100.00
22550;BME280;11441;57.164;-2.120;2022-12-18T07:41:19;101054.25;;;-0.32;100.00
22550;BME280;11441;57.164;-2.120;2022-12-18T07:43:47;101061.28;;;-0.26;100.00
22550;BME280;11441;57.164;-2.120;2022-12-18T07:46:15;101051.25;;;-0.21;100.00
22550;BME280;11441;57.164;-2.120;2022-12-18T07:48:43;101045.00;;;-0.16;100.00
22550;BME280;11441;57.164;-2.120;2022-12-18T07:51:15;101032.84;;;-0.13;100.00
22550;BME280;11441;57.164;-2.120;2022-12-18T07:53:42;101029.59;;;-0.15;100.00
22550;BME280;11441;57.164;-2.120;2022-12-18T07:56:11;101035.28;;;-0.12;100.00
22550;BME280;11441;57.164;-2.120;2022-12-18T07:58:57;101008.19;;;-0.12;100.00
22550;BME280;11441;57.164;-2.120;2022-12-18T08:01:24;101006.63;;;-0.39;100.00
22550;BME280;11441;57.164;-2.120;2022-12-18T08:03:51;101004.66;;;-0.17;100.00
22550;BME280;11441;57.164;-2.120;2022-12-18T08:06:18;100996.00;;;-0.20;100.00
22550;BME280;11441;57.164;-2.120;2022-12-18T08:08:54;101011.97;;;-0.18;100.00
22550;BME280;11441;57.164;-2.120;2022-12-18T08:11:22;101014.44;;;-0.22;100.00
22550;BME280;11441;57.164;-2.120;2022-12-18T08:13:49;101010.94;;;-0.27;100.00
22550;BME280;11441;57.164;-2.120;2022-12-18T08:16:17;101011.75;;;-0.32;100.00
22550;BME280;11441;57.164;-2.120;2022-12-18T08:18:45;101013.91;;;-0.24;100.00
22550;BME280;11441;57.164;-2.120;2022-12-18T08:21:14;101008.47;;;-0.13;100.00
22550;BME280;11441;57.164;-2.120;2022-12-18T08:23:42;101010.53;;;0.05;100.00
22550;BME280;11441;57.164;-2.120;2022-12-18T08:26:10;101013.47;;;0.19;100.00
22550;BME280;11441;57.164;-2.120;2022-12-18T08:28:38;101004.31;;;0.10;100.00
22550;BME280;11441;57.164;-2.120;2022-12-18T08:31:06;101004.63;;;-0.02;100.00
22550;BME280;11441;57.164;-2.120;2022-12-18T08:33:34;100984.56;;;0.09;100.00
22550;BME280;11441;57.164;-2.120;2022-12-18T08:36:01;100986.47;;;0.09;100.00
22550;BME280;11441;57.164;-2.120;2022-12-18T08:38:28;100986.47;;;0.04;100.00
22550;BME280;11441;57.164;-2.120;2022-12-18T08:41:15;100982.66;;;0.05;100.00
22550;BME280;11441;57.164;-2.120;2022-12-18T08:43:42;100976.47;;;-0.06;100.00
22550;BME280;11441;57.164;-2.120;2022-12-18T08:46:34;100974.03;;;-0.08;100.00
22550;BME280;11441;57.164;-2.120;2022-12-18T08:49:01;100973.53;;;-0.10;100.00
22550;BME280;11441;57.164;-2.120;2022-12-18T08:51:29;100954.03;;;-0.12;100.00
22550;BME280;11441;57.164;-2.120;2022-12-18T08:53:56;100976.16;;;0.06;100.00
22550;BME280;11441;57.164;-2.120;2022-12-18T08:56:23;100974.25;;;0.11;100.00
22550;BME280;11441;57.164;-2.120;2022-12-18T08:58:54;100964.22;;;0.12;100.00
22550;BME280;11441;57.164;-2.120;2022-12-18T09:01:21;100964.16;;;0.22;100.00
22550;BME280;11441;57.164;-2.120;2022-12-18T09:04:09;100957.38;;;0.30;100.00
22550;BME280;11441;57.164;-2.120;2022-12-18T09:06:54;100954.03;;;0.38;100.00
22550;BME280;11441;57.164;-2.120;2022-12-18T09:09:21;100964.88;;;0.38;100.00
22550;BME280;11441;57.164;-2.120;2022-12-18T09:12:07;100958.59;;;0.48;100.00
22550;BME280;11441;57.164;-2.120;2022-12-18T09:14:33;100949.75;;;0.71;100.00
22550;BME280;11441;57.164;-2.120;2022-12-18T09:17:00;100943.34;;;0.97;100.00
22550;BME280;11441;57.164;-2.120;2022-12-18T09:19:44;100947.03;;;1.06;100.00
22550;BME280;11441;57.164;-2.120;2022-12-18T09:22:11;100935.03;;;1.17;100.00
22550;BME280;11441;57.164;-2.120;2022-12-18T09:24:38;100926.78;;;1.27;100.00
22550;BME280;11441;57.164;-2.120;2022-12-18T09:27:05;100912.84;;;1.34;100.00
22550;BME280;11441;57.164;-2.120;2022-12-18T09:29:51;100919.97;;;1.54;100.00
22550;BME280;11441;57.164;-2.120;2022-12-18T09:32:37;100917.16;;;1.64;100.00
22550;BME280;11441;57.164;-2.120;2022-12-18T09:35:05;100912.50;;;1.89;100.00
22550;BME280;11441;57.164;-2.120;2022-12-18T09:37:32;100913.91;;;2.05;100.00
22550;BME280;11441;57.164;-2.120;2022-12-18T09:39:58;100909.81;;;2.08;100.00
22550;BME280;11441;57.164;-2.120;2022-12-18T09:42:46;100915.97;;;2.14;100.00
22550;BME280;11441;57.164;-2.120;2022-12-18T09:45:46;100908.19;;;2.26;100.00
22550;BME280;11441;57.164;-2.120;2022-12-18T09:48:19;100903.88;;;2.44;100.00
22550;BME280;11441;57.164;-2.120;2022-12-18T09:50:48;100896.72;;;2.48;100.00
22550;BME280;11441;57.164;-2.120;2022-12-18T09:53:36;100891.44;;;2.57;100.00
22550;BME280;11441;57.164;-2.120;2022-12-18T09:56:05;100878.47;;;2.68;100.00
22550;BME280;11441;57.164;-2.120;2022-12-18T09:58:40;100881.53;;;2.80;100.00
22550;BME280;11441;57.164;-2.120;2022-12-18T10:01:21;100889.53;;;2.90;100.00
22550;BME280;11441;57.164;-2.120;2022-12-18T10:04:08;100881.81;;;3.11;100.00
22550;BME280;11441;57.164;-2.120;2022-12-18T10:07:01;100880.53;;;3.23;100.00
22550;BME280;11441;57.164;-2.120;2022-12-18T10:09:44;100895.84;;;3.32;100.00
22550;BME280;11441;57.164;-2.120;2022-12-18T10:28:00;100887.69;;;3.74;100.00
22550;BME280;11441;57.164;-2.120;2022-12-18T10:30:34;100871.84;;;3.62;100.00
22550;BME280;11441;57.164;-2.120;2022-12-18T10:33:23;100874.25;;;3.77;100.00
22550;BME280;11441;57.164;-2.120;2022-12-18T10:39:14;100868.50;;;3.79;100.00
22550;BME280;11441;57.164;-2.120;2022-12-18T10:41:42;100850.94;;;3.85;100.00
22550;BME280;11441;57.164;-2.120;2022-12-18T10:44:28;100841.34;;;3.88;100.00
22550;BME280;11441;57.164;-2.120;2022-12-18T10:47:03;100843.88;;;3.84;100.00
22550;BME280;11441;57.164;-2.120;2022-12-18T10:49:41;100836.56;;;3.93;100.00
22550;BME280;11441;57.164;-2.120;2022-12-18T10:52:22;100825.44;;;4.04;100.00
22550;BME280;11441;57.164;-2.120;2022-12-18T10:54:54;100823.59;;;3.90;100.00
22550;BME280;11441;57.164;-2.120;2022-12-18T10:57:41;100823.06;;;3.88;100.00
22550;BME280;11441;57.164;-2.120;2022-12-18T11:00:27;100816.66;;;4.07;100.00
22550;BME280;11441;57.164;-2.120;2022-12-18T11:02:55;100820.88;;;4.13;100.00
22550;BME280;11441;57.164;-2.120;2022-12-18T11:05:33;100811.28;;;4.15;100.00
22550;BME280;11441;57.164;-2.120;2022-12-18T11:08:01;100804.41;;;4.18;100.00
22550;BME280;11441;57.164;-2.120;2022-12-18T11:10:28;100802.28;;;4.15;100.00
22550;BME280;11441;57.164;-2.120;2022-12-18T11:13:18;100788.09;;;4.04;100.00
22550;BME280;11441;57.164;-2.120;2022-12-18T11:15:47;100766.41;;;3.99;100.00
22550;BME280;11441;57.164;-2.120;2022-12-18T11:18:22;100759.97;;;4.18;100.00
22550;BME280;11441;57.164;-2.120;2022-12-18T11:21:11;100778.50;;;4.29;100.00
22550;BME280;11441;57.164;-2.120;2022-12-18T11:23:57;100772.81;;;4.17;100.00
22550;BME280;11441;57.164;-2.120;2022-12-18T11:26:33;100773.78;;;4.21;100.00
22550;BME280;11441;57.164;-2.120;2022-12-18T11:29:16;100763.75;;;4.30;100.00
22550;BME280;11441;57.164;-2.120;2022-12-18T11:31:45;100758.91;;;4.27;100.00
22550;BME280;11441;57.164;-2.120;2022-12-18T11:37:00;100745.66;;;4.34;100.00
22550;BME280;11441;57.164;-2.120;2022-12-18T11:40:03;100724.06;;;4.47;100.00
22550;BME280;11441;57.164;-2.120;2022-12-18T11:50:25;100703.63;;;4.36;100.00
22550;BME280;11441;57.164;-2.120;2022-12-18T11:52:52;100704.78;;;4.43;100.00
22550;BME280;11441;57.164;-2.120;2022-12-18T11:56:06;100701.13;;;4.48;100.00
22550;BME280;11441;57.164;-2.120;2022-12-18T11:58:47;100686.72;;;4.56;100.00
22550;BME280;11441;57.164;-2.120;2022-12-18T12:01:25;100663.63;;;4.62;100.00
22550;BME280;11441;57.164;-2.120;2022-12-18T12:20:49;100640.31;;;4.47;100.00
22550;BME280;11441;57.164;-2.120;2022-12-18T12:40:19;100619.34;;;4.57;100.00
22550;BME280;11441;57.164;-2.120;2022-12-18T12:43:44;100610.31;;;4.56;100.00
22550;BME280;11441;57.164;-2.120;2022-12-18T12:46:19;100600.88;;;4.53;100.00
22550;BME280;11441;57.164;-2.120;2022-12-18T12:48:58;100600.69;;;4.50;100.00
22550;BME280;11441;57.164;-2.120;2022-12-18T12:51:32;100596.66;;;4.47;100.00
22550;BME280;11441;57.164;-2.120;2022-12-18T12:54:21;100574.06;;;4.47;100.00
22550;BME280;11441;57.164;-2.120;2022-12-18T13:00:15;100564.41;;;4.41;100.00
22550;BME280;11441;57.164;-2.120;2022-12-18T13:13:21;100536.97;;;4.37;100.00
22550;BME280;11441;57.164;-2.120;2022-12-18T13:16:07;100540.53;;;4.46;100.00
22550;BME280;11441;57.164;-2.120;2022-12-18T13:18:35;100540.69;;;4.41;100.00
22550;BME280;11441;57.164;-2.120;2022-12-18T13:21:15;100517.25;;;4.49;100.00
22550;BME280;11441;57.164;-2.120;2022-12-18T13:23:47;100529.44;;;4.43;100.00
22550;BME280;11441;57.164;-2.120;2022-12-18T13:28:56;100514.00;;;4.29;100.00
22550;BME280;11441;57.164;-2.120;2022-12-18T13:39:58;100508.22;;;4.22;100.00
22550;BME280;11441;57.164;-2.120;2022-12-18T13:42:38;100487.53;;;4.30;100.00
22550;BME280;11441;57.164;-2.120;2022-12-18T13:46:04;100489.59;;;4.15;100.00
22550;BME280;11441;57.164;-2.120;2022-12-18T13:48:34;100484.94;;;4.16;100.00
22550;BME280;11441;57.164;-2.120;2022-12-18T13:51:07;100477.63;;;4.34;100.00
22550;BME280;11441;57.164;-2.120;2022-12-18T13:53:56;100468.28;;;4.26;100.00
22550;BME280;11441;57.164;-2.120;2022-12-18T13:56:44;100464.44;;;4.27;100.00
22550;BME280;11441;57.164;-2.120;2022-12-18T13:59:35;100470.97;;;4.09;100.00
22550;BME280;11441;57.164;-2.120;2022-12-18T14:02:16;100458.03;;;4.14;100.00
22550;BME280;11441;57.164;-2.120;2022-12-18T14:05:03;100449.03;;;4.14;100.00
22550;BME280;11441;57.164;-2.120;2022-12-18T14:07:52;100441.47;;;4.11;100.00
22550;BME280;11441;57.164;-2.120;2022-12-18T14:10:44;100450.97;;;4.13;100.00
22550;BME280;11441;57.164;-2.120;2022-12-18T14:13:33;100434.28;;;4.06;100.00
22550;BME280;11441;57.164;-2.120;2022-12-18T14:16:21;100434.91;;;4.03;100.00
22550;BME280;11441;57.164;-2.120;2022-12-18T14:18:53;100422.38;;;4.02;100.00
22550;BME280;11441;57.164;-2.120;2022-12-18T14:21:45;100415.81;;;4.03;100.00
22550;BME280;11441;57.164;-2.120;2022-12-18T14:24:20;100432.84;;;4.18;100.00
22550;BME280;11441;57.164;-2.120;2022-12-18T14:27:20;100414.72;;;4.13;100.00
22550;BME280;11441;57.164;-2.120;2022-12-18T14:29:47;100396.75;;;4.03;100.00
22550;BME280;11441;57.164;-2.120;2022-12-18T14:32:17;100409.72;;;3.97;100.00
22550;BME280;11441;57.164;-2.120;2022-12-18T14:37:20;100390.50;;;4.03;100.00
22550;BME280;11441;57.164;-2.120;2022-12-18T14:40:26;100390.03;;;4.18;100.00
22550;BME280;11441;57.164;-2.120;2022-12-18T14:43:13;100388.41;;;4.17;100.00
22550;BME280;11441;57.164;-2.120;2022-12-18T14:45:42;100377.34;;;4.05;100.00
22550;BME280;11441;57.164;-2.120;2022-12-18T14:48:47;100370.97;;;4.18;100.00
22550;BME280;11441;57.164;-2.120;2022-12-18T14:51:19;100371.59;;;4.15;100.00
22550;BME280;11441;57.164;-2.120;2022-12-18T14:56:35;100361.31;;;4.03;100.00
22550;BME280;11441;57.164;-2.120;2022-12-18T14:59:06;100356.50;;;4.18;100.00
22550;BME280;11441;57.164;-2.120;2022-12-18T15:04:39;100344.81;;;4.17;100.00
22550;BME280;11441;57.164;-2.120;2022-12-18T15:07:22;100339.66;;;4.24;100.00
22550;BME280;11441;57.164;-2.120;2022-12-18T15:10:10;100337.75;;;4.16;100.00
22550;BME280;11441;57.164;-2.120;2022-12-18T15:13:23;100326.84;;;4.16;100.00
22550;BME280;11441;57.164;-2.120;2022-12-18T15:16:10;100307.28;;;4.31;100.00